Harrisonville, Illinois
Current Conditions -  °F | °C
As of 1:53 PM on Thursday 30 Oct 2014 (Local Time) from KCPS Reporting Station
Clear Clear  
Wind Chill: 16°   Ceiling: Unl
Heat Index: 16°   Visibility: 10mi
Dew Point:   Wind: 7mph
Humidity: 44%   Direction: 170°S
Pressure: 30.05"   Gusts: NA
Location:  38.2838°N, 90.3044°W
Report Text: KCPS 301853Z 17006KT 10SM CLR 16/03 A3005 RMK AO2 SLP178 T01560033
Loading
Personal Weather Stations






























Interactive Weather Map
Tropical Storm Tracking
New forecast layout! Learn more

10-Day Weather Forecast

Advertisements
Track Severe Weather on mobile